createdAt,value
2018-04-09T00:01:44.939Z,3.80
2018-04-09T00:04:12.508Z,4.10
2018-04-09T00:06:40.051Z,3.67
2018-04-09T00:09:07.675Z,3.60
2018-04-09T00:11:35.210Z,3.63
2018-04-09T00:14:02.769Z,3.73
2018-04-09T00:16:30.299Z,4.30
2018-04-09T00:18:57.882Z,3.40
2018-04-09T00:21:25.450Z,3.60
2018-04-09T00:23:53.800Z,3.20
2018-04-09T00:26:21.374Z,3.77
2018-04-09T00:28:48.923Z,3.60
2018-04-09T00:31:16.493Z,3.37
2018-04-09T00:33:44.026Z,3.47
2018-04-09T00:36:11.608Z,3.40
2018-04-09T00:38:39.135Z,3.17
2018-04-09T00:41:06.712Z,2.63
2018-04-09T00:43:34.234Z,2.77
2018-04-09T00:46:02.004Z,3.10
2018-04-09T00:48:29.523Z,2.73
2018-04-09T00:50:57.078Z,3.17
2018-04-09T00:53:36.528Z,2.90
2018-04-09T00:56:04.092Z,2.93
2018-04-09T00:58:32.394Z,2.90
2018-04-09T01:00:59.960Z,2.80
2018-04-09T01:03:27.484Z,2.40
2018-04-09T01:05:55.035Z,2.43
2018-04-09T01:08:22.567Z,2.53
2018-04-09T01:10:50.122Z,2.63
2018-04-09T01:13:17.694Z,2.73
2018-04-09T01:15:45.250Z,2.17
2018-04-09T01:18:12.831Z,2.30
2018-04-09T01:20:40.373Z,2.70
2018-04-09T01:23:07.922Z,2.70
2018-04-09T01:25:35.452Z,2.30
2018-04-09T01:28:03.034Z,2.20
2018-04-09T01:30:30.610Z,2.57
2018-04-09T01:32:58.197Z,2.37
2018-04-09T01:35:26.496Z,2.00
2018-04-09T01:37:54.065Z,2.33
2018-04-09T01:40:21.610Z,1.97
2018-04-09T01:42:49.945Z,2.10
2018-04-09T01:45:17.482Z,2.00
2018-04-09T01:47:45.070Z,2.17
2018-04-09T01:50:12.605Z,2.13
2018-04-09T01:52:40.170Z,2.37
2018-04-09T01:55:08.459Z,1.97
2018-04-09T01:57:36.013Z,2.10
2018-04-09T02:00:03.556Z,2.10
2018-04-09T02:02:31.126Z,2.23
2018-04-09T02:04:58.672Z,1.97
2018-04-09T02:07:26.217Z,2.10
2018-04-09T02:09:53.722Z,2.40
2018-04-09T02:12:21.262Z,2.27
2018-04-09T02:14:48.820Z,2.10
2018-04-09T02:17:16.332Z,2.50
2018-04-09T02:19:44.640Z,2.27
2018-04-09T02:22:12.180Z,2.23
2018-04-09T02:24:39.730Z,2.30
2018-04-09T02:27:08.035Z,2.40
2018-04-09T02:29:35.628Z,2.30
2018-04-09T02:32:03.151Z,2.13
2018-04-09T02:34:30.729Z,1.80
2018-04-09T02:36:58.246Z,2.17
2018-04-09T02:39:26.597Z,1.80
2018-04-09T02:41:54.205Z,2.20
2018-04-09T02:44:21.806Z,2.47
2018-04-09T02:46:49.334Z,2.07
2018-04-09T02:49:16.859Z,2.07
2018-04-09T02:51:44.490Z,1.93
2018-04-09T02:54:12.024Z,2.17
2018-04-09T02:56:39.584Z,2.00
2018-04-09T02:59:07.127Z,2.03
2018-04-09T03:01:34.726Z,2.30
2018-04-09T03:04:02.251Z,2.27
2018-04-09T03:06:29.818Z,1.90
2018-04-09T03:08:58.120Z,2.40
2018-04-09T03:11:25.680Z,2.37
2018-04-09T03:13:53.201Z,2.43
2018-04-09T03:16:20.740Z,2.17
2018-04-09T03:18:48.241Z,1.80
2018-04-09T03:21:15.810Z,2.07
2018-04-09T03:23:43.352Z,2.00
2018-04-09T03:26:10.928Z,2.20
2018-04-09T03:28:38.446Z,2.30
2018-04-09T03:31:06.288Z,2.03
2018-04-09T03:33:33.863Z,2.03
2018-04-09T03:36:02.134Z,2.20
2018-04-09T03:38:30.460Z,2.70
2018-04-09T03:40:58.000Z,2.30
2018-04-09T03:43:25.564Z,2.40
2018-04-09T03:45:53.092Z,2.20
2018-04-09T03:48:20.642Z,2.17
2018-04-09T03:50:48.953Z,2.00
2018-04-09T03:53:16.508Z,2.20
2018-04-09T03:55:44.057Z,2.30
2018-04-09T03:58:11.741Z,2.17
2018-04-09T04:00:39.191Z,2.40
2018-04-09T04:03:06.775Z,15.67
2018-04-09T04:05:34.327Z,2.60
2018-04-09T04:08:01.888Z,2.43
2018-04-09T04:10:29.420Z,2.70
2018-04-09T04:12:56.984Z,2.20
2018-04-09T04:15:36.324Z,2.40
2018-04-09T04:18:15.604Z,2.60
2018-04-09T04:20:54.859Z,2.10
2018-04-09T04:23:22.448Z,2.53
2018-04-09T04:25:49.986Z,2.90
2018-04-09T04:28:18.268Z,2.23
2018-04-09T04:30:46.602Z,2.40
2018-04-09T04:33:14.118Z,2.30
2018-04-09T04:35:41.682Z,2.20
2018-04-09T04:38:09.208Z,2.53
2018-04-09T04:40:36.764Z,2.03
2018-04-09T04:43:05.074Z,2.50
2018-04-09T04:45:32.660Z,2.40
2018-04-09T04:48:00.232Z,2.23
2018-04-09T04:50:28.625Z,2.30
2018-04-09T04:52:56.272Z,2.30
2018-04-09T04:55:23.836Z,2.43
2018-04-09T04:57:51.362Z,2.33
2018-04-09T05:00:18.931Z,2.40
2018-04-09T05:02:46.438Z,2.50
2018-04-09T05:05:13.990Z,2.40
2018-04-09T05:07:41.539Z,2.27
2018-04-09T05:10:09.075Z,2.50
2018-04-09T05:12:36.584Z,2.20
2018-04-09T05:15:04.901Z,2.40
2018-04-09T05:17:32.428Z,2.67
2018-04-09T05:20:00.003Z,2.93
2018-04-09T05:22:27.534Z,2.40
2018-04-09T05:24:55.069Z,3.30
2018-04-09T05:27:22.619Z,3.00
2018-04-09T05:29:50.135Z,2.67
2018-04-09T05:32:17.704Z,2.13
2018-04-09T05:34:45.222Z,2.40
2018-04-09T05:37:12.813Z,2.53
2018-04-09T05:39:40.328Z,2.23
2018-04-09T05:42:07.889Z,2.43
2018-04-09T05:44:35.415Z,2.57
2018-04-09T05:47:03.025Z,2.50
2018-04-09T05:49:30.502Z,2.53
2018-04-09T05:51:58.817Z,2.67
2018-04-09T05:54:26.350Z,3.37
2018-04-09T05:56:53.932Z,3.80
2018-04-09T05:59:21.487Z,4.60
2018-04-09T06:01:49.058Z,5.20
2018-04-09T06:04:16.628Z,4.60
2018-04-09T06:06:44.174Z,4.67
2018-04-09T06:09:11.742Z,4.73
2018-04-09T06:11:39.280Z,4.70
2018-04-09T06:14:06.860Z,4.40
2018-04-09T06:16:34.374Z,4.53
2018-04-09T06:19:02.703Z,4.33
2018-04-09T06:21:30.231Z,4.50
2018-04-09T06:23:58.091Z,4.40
2018-04-09T06:26:25.654Z,3.80
2018-04-09T06:28:53.235Z,4.73
2018-04-09T06:31:20.774Z,3.83
2018-04-09T06:33:48.314Z,4.03
2018-04-09T06:36:15.830Z,4.27
2018-04-09T06:38:43.374Z,3.63
2018-04-09T06:41:10.908Z,2.93
2018-04-09T06:43:38.469Z,3.20
2018-04-09T06:46:06.015Z,2.60
2018-04-09T06:48:33.573Z,2.70
2018-04-09T06:51:01.864Z,3.10
2018-04-09T06:53:29.434Z,2.70
2018-04-09T06:55:56.995Z,3.50
2018-04-09T06:58:24.549Z,2.97
2018-04-09T07:00:52.102Z,2.90
2018-04-09T07:03:19.634Z,2.77
2018-04-09T07:05:47.183Z,3.10
2018-04-09T07:08:14.725Z,2.73
2018-04-09T07:10:42.312Z,2.63
2018-04-09T07:13:09.856Z,2.83
2018-04-09T07:15:37.445Z,2.67
2018-04-09T07:18:05.742Z,2.47
2018-04-09T07:20:33.299Z,3.63
2018-04-09T07:23:00.821Z,3.60
2018-04-09T07:25:29.216Z,3.87
2018-04-09T07:27:56.769Z,4.07
2018-04-09T07:30:25.096Z,4.57
2018-04-09T07:32:52.602Z,5.10
2018-04-09T07:35:20.180Z,5.53
2018-04-09T07:37:48.466Z,5.97
2018-04-09T07:40:16.017Z,5.10
2018-04-09T07:42:43.539Z,5.80
2018-04-09T07:45:11.091Z,5.80
2018-04-09T07:47:38.607Z,5.37
2018-04-09T07:50:06.720Z,5.13
2018-04-09T07:52:34.241Z,5.63
2018-04-09T07:55:01.767Z,5.63
2018-04-09T07:57:29.334Z,5.00
2018-04-09T07:59:57.641Z,4.80
2018-04-09T08:02:25.214Z,3.60
2018-04-09T08:04:52.768Z,2.80
2018-04-09T08:07:20.355Z,2.93
2018-04-09T08:09:47.896Z,2.60
2018-04-09T08:12:15.459Z,2.67
2018-04-09T08:14:43.004Z,2.83
2018-04-09T08:17:11.175Z,3.10
2018-04-09T08:19:38.729Z,3.10
2018-04-09T08:22:06.279Z,2.83
2018-04-09T08:24:33.802Z,3.33
2018-04-09T08:27:01.381Z,3.27
2018-04-09T08:29:28.910Z,5.00
2018-04-09T08:31:56.471Z,6.17
2018-04-09T08:34:23.986Z,3.40
2018-04-09T08:36:51.564Z,3.47
2018-04-09T08:39:19.847Z,3.20
2018-04-09T08:41:47.570Z,3.27
2018-04-09T08:44:15.080Z,3.50
2018-04-09T08:46:42.618Z,3.50
2018-04-09T08:49:10.175Z,3.43
2018-04-09T08:51:37.725Z,3.30
2018-04-09T08:54:05.285Z,3.23
2018-04-09T08:56:32.808Z,3.13
2018-04-09T08:59:00.358Z,3.60
2018-04-09T09:01:27.872Z,3.33
2018-04-09T09:03:55.442Z,3.33
2018-04-09T09:06:22.987Z,3.30
2018-04-09T09:08:50.549Z,3.67
2018-04-09T09:11:18.055Z,3.40
2018-04-09T09:13:45.602Z,2.80
2018-04-09T09:16:13.122Z,3.57
2018-04-09T09:18:40.667Z,3.00
2018-04-09T09:21:08.201Z,2.67
2018-04-09T09:23:35.750Z,3.10
2018-04-09T09:26:03.274Z,2.93
2018-04-09T09:28:30.828Z,3.23
2018-04-09T09:30:59.128Z,3.50
2018-04-09T09:33:26.677Z,3.33
2018-04-09T09:35:54.195Z,3.43
2018-04-09T09:38:22.473Z,4.10
2018-04-09T09:40:50.007Z,3.73
2018-04-09T09:43:17.550Z,3.43
2018-04-09T09:45:45.131Z,3.50
2018-04-09T09:48:12.636Z,3.57
2018-04-09T09:50:40.197Z,3.27
2018-04-09T09:53:07.701Z,3.13
2018-04-09T09:55:35.258Z,3.20
2018-04-09T09:58:03.041Z,3.60
2018-04-09T10:00:36.157Z,3.70
2018-04-09T10:03:04.281Z,3.40
2018-04-09T10:05:31.874Z,3.43
2018-04-09T10:07:59.412Z,3.20
2018-04-09T10:10:26.987Z,3.17
2018-04-09T10:12:55.277Z,2.97
2018-04-09T10:15:22.847Z,3.60
2018-04-09T10:17:50.362Z,3.60
2018-04-09T10:20:17.912Z,3.67
2018-04-09T10:22:45.436Z,3.00
2018-04-09T10:25:13.202Z,2.80
2018-04-09T10:27:40.726Z,3.30
2018-04-09T10:30:08.234Z,2.80
2018-04-09T10:32:35.798Z,3.40
2018-04-09T10:35:03.307Z,3.00
2018-04-09T10:37:30.846Z,2.70
2018-04-09T10:39:58.357Z,3.13
2018-04-09T10:42:25.904Z,2.80
2018-04-09T10:44:53.429Z,2.70
2018-04-09T10:47:21.737Z,3.00
2018-04-09T10:49:49.237Z,2.43
2018-04-09T10:52:16.787Z,2.47
2018-04-09T10:54:44.292Z,2.90
2018-04-09T10:57:12.306Z,2.70
2018-04-09T10:59:39.816Z,3.07
2018-04-09T11:02:08.137Z,2.47
2018-04-09T11:04:35.640Z,2.93
2018-04-09T11:07:03.147Z,2.50
2018-04-09T11:09:30.688Z,2.67
2018-04-09T11:11:58.196Z,2.67
2018-04-09T11:14:26.336Z,2.70
2018-04-09T11:16:53.841Z,2.97
2018-04-09T11:19:21.377Z,3.20
2018-04-09T11:21:48.886Z,3.03
2018-04-09T11:24:16.441Z,2.83
2018-04-09T11:26:43.965Z,2.67
2018-04-09T11:29:11.520Z,2.20
2018-04-09T11:31:39.055Z,2.07
2018-04-09T11:34:06.616Z,2.20
2018-04-09T11:36:34.168Z,2.40
2018-04-09T11:39:01.724Z,2.23
2018-04-09T11:41:29.228Z,2.50
2018-04-09T11:43:56.756Z,2.33
2018-04-09T11:46:24.275Z,2.67
2018-04-09T11:48:52.612Z,2.10
2018-04-09T11:51:20.127Z,2.17
2018-04-09T11:53:47.631Z,2.20
2018-04-09T11:56:15.202Z,2.57
2018-04-09T11:58:42.724Z,2.40
2018-04-09T12:01:10.263Z,2.33
2018-04-09T12:03:37.758Z,2.40
2018-04-09T12:06:05.322Z,2.20
2018-04-09T12:08:32.814Z,2.53
2018-04-09T12:11:00.363Z,1.97
2018-04-09T12:13:27.892Z,2.40
2018-04-09T12:15:55.477Z,2.60
2018-04-09T12:18:23.023Z,2.70
2018-04-09T12:20:50.658Z,2.40
2018-04-09T12:23:18.225Z,2.70
2018-04-09T12:25:45.861Z,2.93
2018-04-09T12:28:13.400Z,2.50
2018-04-09T12:30:41.768Z,2.17
2018-04-09T12:33:09.333Z,2.60
2018-04-09T12:35:37.653Z,2.77
2018-04-09T12:38:05.218Z,2.37
2018-04-09T12:40:32.788Z,2.43
2018-04-09T12:43:00.398Z,2.47
2018-04-09T12:45:28.756Z,2.50
2018-04-09T12:47:56.340Z,3.00
2018-04-09T12:50:23.905Z,2.60
2018-04-09T12:52:52.267Z,2.60
2018-04-09T12:55:19.853Z,2.50
2018-04-09T12:57:47.428Z,2.80
2018-04-09T13:00:14.959Z,2.90
2018-04-09T13:02:42.610Z,2.50
2018-04-09T13:05:10.142Z,2.70
2018-04-09T13:07:37.751Z,2.50
2018-04-09T13:10:05.369Z,3.90
2018-04-09T13:12:32.953Z,2.77
2018-04-09T13:15:01.279Z,2.57
2018-04-09T13:17:28.937Z,2.53
2018-04-09T13:19:56.458Z,2.50
2018-04-09T13:22:24.001Z,2.43
2018-04-09T13:24:51.565Z,2.70
2018-04-09T13:27:19.928Z,2.23
2018-04-09T13:29:47.504Z,2.30
2018-04-09T13:32:15.172Z,2.10
2018-04-09T13:34:42.759Z,2.40
2018-04-09T13:37:11.007Z,2.40
2018-04-09T13:39:41.517Z,2.50
2018-04-09T13:42:09.107Z,2.43
2018-04-09T13:44:36.697Z,2.70
2018-04-09T13:47:04.265Z,2.63
2018-04-09T13:49:31.957Z,2.63
2018-04-09T13:51:59.511Z,2.47
2018-04-09T13:54:27.088Z,2.90
2018-04-09T13:56:54.635Z,2.77
2018-04-09T13:59:22.232Z,2.17
2018-04-09T14:01:49.799Z,1.97
2018-04-09T14:04:17.451Z,2.33
2018-04-09T14:06:44.989Z,2.43
2018-04-09T14:09:12.615Z,2.13
2018-04-09T14:11:40.132Z,2.63
2018-04-09T14:14:07.726Z,2.70
2018-04-09T14:16:35.312Z,2.90
2018-04-09T14:19:03.620Z,2.90
2018-04-09T14:21:31.275Z,2.97
2018-04-09T14:23:58.903Z,3.40
2018-04-09T14:26:26.546Z,3.07
2018-04-09T14:28:54.091Z,2.77
2018-04-09T14:31:22.464Z,3.47
2018-04-09T14:33:50.024Z,3.17
2018-04-09T14:36:17.581Z,3.40
2018-04-09T14:38:45.599Z,3.40
2018-04-09T14:41:13.200Z,3.30
2018-04-09T14:43:40.744Z,3.23
2018-04-09T14:46:08.336Z,3.87
2018-04-09T14:48:35.932Z,3.63
2018-04-09T14:51:03.468Z,3.07
2018-04-09T14:53:31.065Z,3.50
2018-04-09T14:55:58.600Z,3.40
2018-04-09T14:58:26.172Z,3.63
2018-04-09T15:00:53.773Z,3.30
2018-04-09T15:03:21.349Z,3.90
2018-04-09T15:05:48.925Z,3.87
2018-04-09T15:08:16.532Z,4.00
2018-04-09T15:10:44.103Z,3.23
2018-04-09T15:13:11.671Z,3.67
2018-04-09T15:15:39.977Z,4.10
2018-04-09T15:18:07.643Z,3.60
2018-04-09T15:20:35.213Z,3.07
2018-04-09T15:23:03.671Z,3.20
2018-04-09T15:25:31.220Z,3.47
2018-04-09T15:27:59.580Z,3.30
2018-04-09T15:30:27.173Z,3.30
2018-04-09T15:32:55.116Z,3.33
2018-04-09T15:35:22.668Z,3.80
2018-04-09T15:37:50.977Z,3.63
2018-04-09T15:40:18.747Z,3.03
2018-04-09T15:42:46.311Z,3.47
2018-04-09T15:45:13.913Z,3.37
2018-04-09T15:47:41.503Z,3.60
2018-04-09T15:50:09.081Z,3.57
2018-04-09T15:52:36.627Z,3.53
2018-04-09T15:55:04.262Z,3.23
2018-04-09T15:57:31.853Z,4.00
2018-04-09T16:00:00.194Z,3.37
2018-04-09T16:02:27.747Z,3.27
2018-04-09T16:04:55.332Z,3.70
2018-04-09T16:10:19.296Z,3.40
2018-04-09T16:12:47.622Z,3.47
2018-04-09T16:15:15.253Z,3.13
2018-04-09T16:17:54.519Z,3.50
2018-04-09T16:20:22.888Z,3.87
2018-04-09T16:22:51.175Z,4.13
2018-04-09T16:25:18.735Z,3.73
2018-04-09T16:27:47.025Z,3.63
2018-04-09T16:30:14.650Z,3.80
2018-04-09T16:32:42.193Z,4.20
2018-04-09T16:35:09.767Z,4.17
2018-04-09T16:37:37.287Z,4.30
2018-04-09T16:40:04.845Z,3.40
2018-04-09T16:42:32.398Z,4.17
2018-04-09T16:44:59.910Z,4.10
2018-04-09T16:47:27.477Z,4.23
2018-04-09T16:49:55.777Z,4.37
2018-04-09T16:52:23.322Z,4.57
2018-04-09T16:54:51.601Z,4.43
2018-04-09T16:57:19.167Z,4.63
2018-04-09T16:59:46.674Z,4.70
2018-04-09T17:02:14.500Z,4.40
2018-04-09T17:04:42.020Z,4.80
2018-04-09T17:07:09.569Z,5.03
2018-04-09T17:09:37.099Z,5.00
2018-04-09T17:12:06.332Z,4.60
2018-04-09T17:14:33.877Z,6.00
2018-04-09T17:17:01.413Z,5.57
2018-04-09T17:19:28.933Z,5.10
2018-04-09T17:21:57.216Z,4.57
2018-04-09T17:24:25.540Z,5.00
2018-04-09T17:26:54.593Z,4.63
2018-04-09T17:29:22.905Z,5.37
2018-04-09T17:31:50.419Z,5.67
2018-04-09T17:34:18.742Z,5.57
2018-04-09T17:36:46.254Z,9.20
2018-04-09T17:39:14.583Z,7.30
2018-04-09T17:41:42.110Z,7.73
2018-04-09T17:44:09.681Z,9.53
2018-04-09T17:46:37.193Z,9.30
2018-04-09T17:49:04.755Z,8.93
2018-04-09T17:51:32.267Z,8.77
2018-04-09T17:53:59.811Z,7.93
2018-04-09T17:56:27.324Z,7.37
2018-04-09T17:58:54.873Z,6.97
2018-04-09T18:01:22.407Z,6.73
2018-04-09T18:03:49.998Z,5.83
2018-04-09T18:06:17.511Z,9.27
2018-04-09T18:08:45.619Z,5.83
2018-04-09T18:11:13.127Z,6.00
2018-04-09T18:13:41.447Z,6.87
2018-04-09T18:16:08.961Z,6.43
2018-04-09T18:18:36.485Z,6.37
2018-04-09T18:21:04.028Z,10.60
2018-04-09T18:23:31.547Z,13.50
2018-04-09T18:25:59.094Z,28.10
2018-04-09T18:28:27.390Z,11.73
2018-04-09T18:30:54.947Z,20.57
2018-04-09T18:33:22.467Z,23.83
2018-04-09T18:35:50.046Z,44.00
2018-04-09T18:38:17.565Z,69.77
2018-04-09T18:40:45.126Z,34.73
2018-04-09T18:43:12.647Z,9.73
2018-04-09T18:45:40.184Z,6.13
2018-04-09T18:48:08.452Z,5.20
2018-04-09T18:50:37.126Z,11.77
2018-04-09T18:53:04.644Z,8.00
2018-04-09T18:55:32.190Z,7.70
2018-04-09T18:57:59.708Z,7.13
2018-04-09T19:00:27.321Z,26.27
2018-04-09T19:02:54.993Z,10.63
2018-04-09T19:05:23.454Z,4.70
2018-04-09T19:07:51.080Z,5.17
2018-04-09T19:10:18.765Z,4.30
2018-04-09T19:12:46.510Z,4.50
2018-04-09T19:15:14.920Z,4.50
2018-04-09T19:17:42.689Z,5.80
2018-04-09T19:20:10.512Z,4.40
2018-04-09T19:22:39.015Z,4.60
2018-04-09T19:25:06.776Z,6.87
2018-04-09T19:27:34.494Z,4.63
2018-04-09T19:30:02.115Z,4.50
2018-04-09T19:32:30.012Z,6.17
2018-04-09T19:35:03.460Z,4.40
2018-04-09T19:37:36.703Z,7.27
2018-04-09T19:40:23.071Z,5.07
2018-04-09T19:48:33.217Z,6.40
2018-04-09T19:51:00.779Z,4.33
2018-04-09T19:53:28.472Z,3.87
2018-04-09T19:55:56.337Z,3.90
2018-04-09T19:58:24.165Z,4.00
2018-04-09T20:00:52.029Z,3.77
2018-04-09T20:03:20.034Z,3.50
2018-04-09T20:05:48.641Z,3.57
2018-04-09T20:08:16.423Z,2.90
2018-04-09T20:10:44.217Z,3.43
2018-04-09T20:13:12.147Z,3.30
2018-04-09T20:15:40.132Z,3.60
2018-04-09T20:18:08.037Z,3.90
2018-04-09T20:20:35.949Z,3.73
2018-04-09T20:23:03.907Z,3.50
2018-04-09T20:25:31.612Z,3.10
2018-04-09T20:27:59.435Z,3.23
2018-04-09T20:30:27.966Z,3.20
2018-04-09T20:32:55.714Z,3.07
2018-04-09T20:35:23.593Z,3.30
2018-04-09T20:37:51.383Z,3.00
2018-04-09T20:40:19.219Z,3.30
2018-04-09T20:42:46.928Z,2.80
2018-04-09T20:45:14.775Z,2.97
2018-04-09T20:47:42.590Z,3.03
2018-04-09T20:50:11.150Z,2.80
2018-04-09T20:52:39.607Z,2.67
2018-04-09T20:55:07.327Z,2.60
2018-04-09T20:57:35.034Z,2.87
2018-04-09T21:00:02.875Z,2.57
2018-04-09T21:02:30.448Z,3.17
2018-04-09T21:04:58.173Z,3.00
2018-04-09T21:07:25.811Z,2.70
2018-04-09T21:09:54.435Z,2.70
2018-04-09T21:12:22.431Z,3.10
2018-04-09T21:14:50.232Z,2.60
2018-04-09T21:17:19.589Z,2.73
2018-04-09T21:19:47.480Z,2.77
2018-04-09T21:22:15.302Z,2.70
2018-04-09T21:24:43.883Z,2.57
2018-04-09T21:27:11.905Z,2.60
2018-04-09T21:29:40.576Z,2.40
2018-04-09T21:32:08.427Z,2.43
2018-04-09T21:34:36.086Z,2.60
2018-04-09T21:37:03.836Z,2.40
2018-04-09T21:39:31.711Z,2.37
2018-04-09T21:41:59.483Z,2.57
2018-04-09T21:44:28.291Z,2.20
2018-04-09T21:46:56.175Z,2.30
2018-04-09T21:49:23.932Z,2.23
2018-04-09T21:51:52.400Z,1.67
2018-04-09T21:54:20.066Z,1.80
2018-04-09T21:56:48.056Z,2.03
2018-04-09T21:59:15.741Z,2.03
2018-04-09T22:01:43.472Z,1.93
2018-04-09T22:04:11.293Z,2.13
2018-04-09T22:06:39.105Z,2.00
2018-04-09T22:09:07.813Z,1.93
2018-04-09T22:11:35.723Z,1.97
2018-04-09T22:14:03.526Z,1.90
2018-04-09T22:16:31.979Z,2.13
2018-04-09T22:18:59.668Z,2.00
2018-04-09T22:21:28.354Z,2.07
2018-04-09T22:23:56.214Z,2.50
2018-04-09T22:26:23.968Z,1.97
2018-04-09T22:28:52.692Z,2.20
2018-04-09T22:31:20.554Z,2.47
2018-04-09T22:33:48.728Z,1.93
2018-04-09T22:36:16.565Z,1.97
2018-04-09T22:38:44.457Z,1.87
2018-04-09T22:41:12.374Z,2.30
2018-04-09T22:43:40.745Z,2.07
2018-04-09T22:46:08.681Z,2.20
2018-04-09T22:48:36.496Z,2.17
2018-04-09T22:51:04.314Z,2.00
2018-04-09T22:53:32.097Z,1.93
2018-04-09T22:56:00.047Z,2.40
2018-04-09T22:58:27.754Z,2.10
2018-04-09T23:00:55.675Z,2.13
2018-04-09T23:03:23.412Z,2.30
2018-04-09T23:05:51.284Z,1.80
2018-04-09T23:08:19.082Z,2.13
2018-04-09T23:10:47.011Z,2.50
2018-04-09T23:13:14.643Z,2.40
2018-04-09T23:15:42.635Z,2.60
2018-04-09T23:18:10.300Z,2.30
2018-04-09T23:20:38.046Z,2.47
2018-04-09T23:23:05.815Z,2.53
2018-04-09T23:25:33.636Z,2.63
2018-04-09T23:28:01.442Z,2.80
2018-04-09T23:30:29.104Z,2.63
2018-04-09T23:32:56.777Z,2.67
2018-04-09T23:35:24.367Z,2.97
2018-04-09T23:37:52.796Z,2.40
2018-04-09T23:40:20.626Z,2.90
2018-04-09T23:42:48.445Z,2.70
2018-04-09T23:45:16.162Z,2.60
2018-04-09T23:47:44.604Z,2.67
2018-04-09T23:50:12.178Z,2.40
2018-04-09T23:52:40.716Z,3.00
2018-04-09T23:55:08.439Z,3.00
2018-04-09T23:57:36.108Z,2.47
